Time;durP1;ratioP1;P1;durP2;ratioP2;P2;SDS_P1;SDS_P2;PMS_P1;PMS_P2;Temp;Humidity;BMP_temperature;BMP_pressure;BME280_temperature;BME280_humidity;BME280_pressure;Samples;Min_cycle;Max_cycle;Signal;HPM_P1;HPM_P2
2023/10/03 00:01:07;;;;;;;0.77;0.30;;;;;;;16.25;61.46;100717.97;4480129;31;33872;-79
2023/10/03 00:03:35;;;;;;;0.43;0.30;;;;;;;16.16;61.41;100709.59;4472877;31;33975;-80
2023/10/03 00:06:05;;;;;;;2.30;0.55;;;;;;;16.11;61.70;100710.69;4488549;31;33848;-79
2023/10/03 00:08:32;;;;;;;0.10;0.10;;;;;;;16.06;62.04;100715.41;4481541;31;34035;-79
2023/10/03 00:11:00;;;;;;;0.88;0.45;;;;;;;16.10;61.74;100714.31;4486503;31;33976;-79
2023/10/03 00:13:28;;;;;;;0.35;0.35;;;;;;;16.19;61.25;100709.41;4475381;31;34745;-79
2023/10/03 00:15:56;;;;;;;2.00;1.15;;;;;;;16.28;60.50;100709.78;4477099;31;35646;-79
2023/10/03 00:18:24;;;;;;;4.70;1.50;;;;;;;15.99;61.47;100711.31;4486860;31;34008;-79
2023/10/03 00:20:52;;;;;;;0.35;0.35;;;;;;;15.85;62.22;100713.84;4474705;31;33945;-80
2023/10/03 00:23:20;;;;;;;1.73;0.88;;;;;;;15.98;61.73;100717.59;4481432;31;33792;-80
2023/10/03 00:25:48;;;;;;;0.25;0.25;;;;;;;15.82;62.39;100708.69;4472425;31;32790;-79
2023/10/03 00:28:16;;;;;;;3.90;1.85;;;;;;;15.88;62.50;100711.87;4475546;32;33324;-80
2023/10/03 00:30:45;;;;;;;1.52;0.85;;;;;;;15.88;62.14;100701.22;4490433;31;34660;-80
2023/10/03 00:33:15;;;;;;;1.05;1.02;;;;;;;15.86;62.21;100703.12;4475499;31;34666;-80
2023/10/03 00:35:42;;;;;;;0.28;0.28;;;;;;;15.95;62.05;100699.13;4477359;31;32716;-80
2023/10/03 00:38:13;;;;;;;0.13;0.13;;;;;;;15.79;62.52;100695.50;4475930;31;33129;-80
2023/10/03 00:40:50;;;;;;;;;;;;;;;15.85;62.36;100681.88;4491983;31;34729;-80
2023/10/03 00:43:19;;;;;;;0.37;0.37;;;;;;;15.95;61.73;100683.16;4462496;31;33120;-80
2023/10/03 00:45:51;;;;;;;6.75;1.80;;;;;;;15.91;62.09;100676.25;4492660;31;33748;-80
2023/10/03 00:48:21;;;;;;;2.45;0.35;;;;;;;15.78;62.07;100685.81;4466432;31;32831;-80
2023/10/03 00:50:49;;;;;;;0.60;0.57;;;;;;;15.85;61.65;100671.22;4477984;31;32909;-81
2023/10/03 00:53:17;;;;;;;2.50;1.37;;;;;;;15.79;61.93;100679.53;4464109;31;34176;-80
2023/10/03 00:55:47;;;;;;;0.85;0.60;;;;;;;15.78;61.76;100678.69;4474818;31;34012;-79
2023/10/03 00:58:27;;;;;;;0.17;0.17;;;;;;;15.78;61.85;100680.47;4472767;31;32437;-79
2023/10/03 01:00:57;;;;;;;0.20;0.20;;;;;;;15.69;62.28;100675.62;4480492;31;33570;-79
2023/10/03 01:03:27;;;;;;;0.22;0.22;;;;;;;15.72;62.20;100670.16;4480434;31;34418;-79
2023/10/03 01:05:58;;;;;;;1.17;0.65;;;;;;;15.66;62.37;100673.09;4475917;32;33123;-80
2023/10/03 01:08:29;;;;;;;0.30;0.30;;;;;;;15.64;62.39;100667.87;4489901;31;34056;-80
2023/10/03 01:11:00;;;;;;;0.20;0.20;;;;;;;15.58;62.43;100670.81;4476902;32;32702;-79
2023/10/03 01:13:29;;;;;;;0.52;0.52;;;;;;;15.53;62.60;100670.19;4495068;31;34032;-80
2023/10/03 01:15:57;;;;;;;0.95;0.77;;;;;;;15.69;62.11;100664.97;4472916;31;33549;-79
2023/10/03 01:18:26;;;;;;;0.20;0.20;;;;;;;15.61;62.08;100658.19;4482974;31;33235;-80
2023/10/03 01:21:05;;;;;;;0.75;0.50;;;;;;;15.97;60.56;100646.63;4479969;31;32734;-80
2023/10/03 01:23:39;;;;;;;0.43;0.43;;;;;;;15.56;61.97;100648.72;4493014;31;33900;-79
2023/10/03 01:26:09;;;;;;;0.80;0.65;;;;;;;15.48;62.35;100658.91;4487319;31;33634;-80
2023/10/03 01:28:38;;;;;;;0.50;0.43;;;;;;;15.30;63.63;100658.88;4491142;31;33905;-80
2023/10/03 01:31:06;;;;;;;0.28;0.22;;;;;;;15.56;62.58;100649.59;4467581;31;33231;-80
2023/10/03 01:33:35;;;;;;;2.35;0.95;;;;;;;15.45;62.79;100657.25;4476697;31;33366;-80
2023/10/03 01:36:03;;;;;;;0.10;0.10;;;;;;;15.39;63.02;100656.72;4468382;31;34582;-79
2023/10/03 01:38:31;;;;;;;0.00;0.00;;;;;;;15.41;63.04;100650.37;4479468;31;33707;-80
2023/10/03 01:41:00;;;;;;;0.20;0.20;;;;;;;15.42;63.00;100659.19;4477918;31;32745;-79
2023/10/03 01:43:28;;;;;;;0.08;0.08;;;;;;;15.31;63.29;100646.44;4468758;31;32967;-81
2023/10/03 01:45:56;;;;;;;0.20;0.20;;;;;;;15.19;63.65;100644.37;4477371;31;35009;-79
2023/10/03 01:48:25;;;;;;;0.40;0.40;;;;;;;15.31;63.30;100649.09;4489986;31;34015;-79
2023/10/03 01:50:52;;;;;;;2.65;1.17;;;;;;;15.43;62.87;100643.19;4480284;31;34135;-79
2023/10/03 01:53:20;;;;;;;0.13;0.13;;;;;;;15.40;62.67;100648.66;4493690;31;33997;-79
2023/10/03 01:55:49;;;;;;;0.62;0.62;;;;;;;15.29;62.90;100645.66;4478607;31;33505;-79
2023/10/03 01:58:21;;;;;;;1.48;0.47;;;;;;;15.34;62.69;100648.97;4466795;31;32965;-79
2023/10/03 02:00:50;;;;;;;;;;;;;;;15.35;62.84;100650.69;4466541;31;32981;-79
2023/10/03 02:03:19;;;;;;;0.62;0.62;;;;;;;15.44;62.41;100641.38;4478751;31;34034;-79
2023/10/03 02:05:48;;;;;;;0.50;0.50;;;;;;;15.32;62.91;100645.50;4489083;31;33885;-79
2023/10/03 02:08:16;;;;;;;1.08;0.50;;;;;;;15.36;62.80;100636.44;4491448;31;33012;-80
2023/10/03 02:10:46;;;;;;;0.47;0.40;;;;;;;15.43;62.47;100632.53;4493305;31;33452;-79
2023/10/03 02:13:15;;;;;;;0.05;0.05;;;;;;;15.41;62.60;100631.72;4482155;31;33256;-79
2023/10/03 02:15:48;;;;;;;1.40;0.47;;;;;;;15.31;62.78;100627.81;4466103;31;32720;-79
2023/10/03 02:18:21;;;;;;;0.30;0.30;;;;;;;15.36;62.62;100623.97;4476645;31;33339;-79
2023/10/03 02:20:51;;;;;;;0.30;0.30;;;;;;;15.40;62.58;100622.03;4474859;32;34069;-79
2023/10/03 02:23:25;;;;;;;6.72;0.95;;;;;;;15.47;62.30;100625.22;4473110;31;34929;-79
2023/10/03 02:26:05;;;;;;;10.52;0.73;;;;;;;15.39;62.67;100625.62;4478173;31;34157;-79
2023/10/03 02:28:34;;;;;;;0.20;0.20;;;;;;;15.40;62.72;100624.69;4490438;31;33654;-80
2023/10/03 02:31:07;;;;;;;0.73;0.73;;;;;;;15.40;62.81;100615.84;4479497;31;34646;-79
2023/10/03 02:33:38;;;;;;;0.52;0.52;;;;;;;15.38;62.75;100613.25;4480321;31;33573;-80
2023/10/03 02:36:09;;;;;;;0.50;0.50;;;;;;;15.45;62.81;100609.34;4477188;31;32776;-80
2023/10/03 02:38:38;;;;;;;0.30;0.30;;;;;;;15.38;63.04;100615.91;4477230;31;32946;-80
2023/10/03 02:41:07;;;;;;;0.20;0.20;;;;;;;15.46;62.34;100603.09;4479929;31;34190;-80
2023/10/03 02:43:43;;;;;;;2.17;1.45;;;;;;;15.34;62.99;100612.56;4481362;31;34011;-80
2023/10/03 02:46:12;;;;;;;0.30;0.30;;;;;;;15.43;63.01;100605.94;4478856;31;34618;-80
2023/10/03 02:48:41;;;;;;;0.45;0.45;;;;;;;15.40;62.82;100610.53;4471799;31;32503;-80
2023/10/03 02:51:10;;;;;;;1.12;0.20;;;;;;;15.31;63.08;100612.72;4466209;31;32820;-80
2023/10/03 02:53:38;;;;;;;0.93;0.77;;;;;;;15.35;62.98;100602.78;4475940;31;32857;-80
2023/10/03 02:56:07;;;;;;;0.80;0.60;;;;;;;15.35;62.75;100602.78;4494559;31;32591;-80
2023/10/03 02:58:35;;;;;;;0.60;0.60;;;;;;;15.18;63.51;100605.41;4474384;32;32356;-80
2023/10/03 03:01:03;;;;;;;1.58;1.48;;;;;;;15.26;62.67;100603.25;4491729;31;33604;-81
2023/10/03 03:03:32;;;;;;;0.98;0.30;;;;;;;15.13;63.48;100607.44;4464537;31;33560;-80
2023/10/03 03:06:09;;;;;;;0.35;0.25;;;;;;;15.30;62.47;100604.81;4478253;31;33692;-80
2023/10/03 03:08:39;;;;;;;0.40;0.40;;;;;;;15.27;62.90;100603.16;4473876;31;33060;-80
2023/10/03 03:11:09;;;;;;;0.62;0.28;;;;;;;15.28;62.69;100601.34;4491467;31;32761;-80
2023/10/03 03:13:38;;;;;;;0.73;0.55;;;;;;;15.19;63.00;100604.47;4476490;31;34000;-80
2023/10/03 03:16:06;;;;;;;0.08;0.08;;;;;;;15.27;62.70;100604.97;4473396;32;34389;-80
2023/10/03 03:18:41;;;;;;;0.75;0.75;;;;;;;15.26;63.10;100600.59;4474569;31;33234;-80
2023/10/03 03:21:15;;;;;;;0.25;0.25;;;;;;;15.21;63.17;100594.62;4476601;32;33136;-79
2023/10/03 03:23:56;;;;;;;4.40;1.48;;;;;;;15.26;63.06;100595.25;4480794;31;33975;-80
2023/10/03 03:26:36;;;;;;;0.90;0.90;;;;;;;15.13;63.35;100592.34;4490883;31;33793;-81
2023/10/03 03:29:20;;;;;;;0.32;0.32;;;;;;;14.97;63.99;100592.25;4492191;31;32781;-80
2023/10/03 03:31:50;;;;;;;0.30;0.30;;;;;;;14.95;63.92;100593.25;4477571;31;32917;-80
2023/10/03 03:34:19;;;;;;;0.32;0.32;;;;;;;15.13;63.46;100591.50;4478801;31;33892;-80
2023/10/03 03:36:49;;;;;;;7.07;0.65;;;;;;;15.05;63.74;100592.75;4463693;31;32968;-81
2023/10/03 03:39:20;;;;;;;0.52;0.52;;;;;;;15.16;63.11;100596.66;4462091;31;33243;-78
2023/10/03 03:41:49;;;;;;;0.55;0.55;;;;;;;14.95;63.86;100594.09;4463816;31;33563;-79
2023/10/03 03:44:19;;;;;;;0.00;0.00;;;;;;;15.06;63.27;100585.63;4477121;31;33811;-79
2023/10/03 03:46:48;;;;;;;0.40;0.40;;;;;;;15.10;63.53;100588.06;4491991;31;33445;-79
2023/10/03 03:49:18;;;;;;;1.95;1.12;;;;;;;15.17;63.10;100577.09;4477629;31;32046;-79
2023/10/03 03:51:47;;;;;;;0.30;0.30;;;;;;;15.14;63.10;100577.25;4481529;31;34623;-79
2023/10/03 03:54:15;;;;;;;1.45;0.65;;;;;;;15.17;63.01;100582.41;4486978;31;34111;-79
2023/10/03 03:56:43;;;;;;;0.30;0.30;;;;;;;15.26;62.36;100580.16;4476559;31;33904;-79
2023/10/03 03:59:13;;;;;;;0.40;0.35;;;;;;;15.05;62.81;100579.44;4479237;31;33127;-79
2023/10/03 04:01:40;;;;;;;1.48;1.37;;;;;;;15.04;63.14;100584.81;4474856;31;33707;-79
2023/10/03 04:04:12;;;;;;;5.22;1.80;;;;;;;14.87;63.76;100585.66;4465383;31;33208;-79
2023/10/03 04:06:42;;;;;;;2.58;0.40;;;;;;;14.98;63.50;100582.47;4465321;31;33740;-79
2023/10/03 04:09:10;;;;;;;0.40;0.40;;;;;;;15.08;63.13;100584.59;4476461;31;33553;-79
2023/10/03 04:11:39;;;;;;;6.87;0.75;;;;;;;15.02;63.24;100578.72;4487949;31;32553;-80
2023/10/03 04:14:07;;;;;;;0.28;0.25;;;;;;;15.04;63.38;100582.16;4478507;31;33012;-80
2023/10/03 04:16:39;;;;;;;0.80;0.75;;;;;;;14.95;63.23;100567.50;4486089;31;34466;-80
2023/10/03 04:19:08;;;;;;;0.17;0.17;;;;;;;14.94;63.15;100576.44;4479489;31;32363;-80
2023/10/03 04:21:39;;;;;;;0.60;0.55;;;;;;;14.91;63.47;100573.94;4491042;31;33614;-80
2023/10/03 04:24:10;;;;;;;0.20;0.20;;;;;;;15.00;62.96;100577.94;4477674;31;33379;-80
2023/10/03 04:26:41;;;;;;;0.05;0.05;;;;;;;14.93;62.96;100572.06;4490047;31;34556;-81
2023/10/03 04:29:11;;;;;;;1.55;0.60;;;;;;;15.03;62.55;100569.81;4480109;31;33129;-82
2023/10/03 04:31:40;;;;;;;0.22;0.22;;;;;;;14.96;62.48;100574.59;4474950;31;32771;-82
2023/10/03 04:34:09;;;;;;;0.75;0.75;;;;;;;14.95;62.67;100572.84;4476761;31;33785;-81
2023/10/03 04:36:37;;;;;;;1.00;0.90;;;;;;;15.02;62.09;100574.28;4492605;31;33354;-80
2023/10/03 04:39:05;;;;;;;0.52;0.52;;;;;;;15.01;62.12;100577.88;4487959;31;34188;-79
2023/10/03 04:41:43;;;;;;;0.43;0.43;;;;;;;14.83;62.86;100573.47;4465908;31;33686;-81
2023/10/03 04:44:15;;;;;;;1.87;0.80;;;;;;;14.93;62.48;100573.88;4466075;31;33883;-79
2023/10/03 04:46:45;;;;;;;1.08;1.08;;;;;;;14.92;62.41;100573.00;4477315;31;33785;-79
2023/10/03 04:49:13;;;;;;;1.48;1.37;;;;;;;14.87;62.37;100569.72;4475440;31;32388;-79
2023/10/03 04:51:45;;;;;;;0.13;0.13;;;;;;;14.78;62.69;100571.03;4487302;31;33803;-80
2023/10/03 04:54:16;;;;;;;1.35;1.12;;;;;;;14.78;62.76;100572.81;4479750;31;33742;-80
2023/10/03 04:56:44;;;;;;;0.25;0.25;;;;;;;14.54;63.36;100570.41;4492345;31;33985;-79
2023/10/03 04:59:13;;;;;;;1.98;1.25;;;;;;;14.56;63.40;100573.84;4477440;31;34206;-80
2023/10/03 05:01:43;;;;;;;0.82;0.65;;;;;;;14.59;63.31;100571.06;4493379;31;33272;-79
2023/10/03 05:04:12;;;;;;;2.42;1.55;;;;;;;14.67;63.31;100575.13;4479054;31;33924;-80
2023/10/03 05:06:40;;;;;;;2.75;1.33;;;;;;;14.85;61.96;100566.25;4487027;31;33663;-79
2023/10/03 05:09:08;;;;;;;0.22;0.22;;;;;;;14.71;62.75;100568.72;4476924;31;32209;-79
2023/10/03 05:11:36;;;;;;;0.77;0.77;;;;;;;14.75;62.89;100559.66;4477856;31;33588;-79
2023/10/03 05:14:04;;;;;;;0.50;0.50;;;;;;;14.67;63.37;100567.16;4465427;31;33767;-80
2023/10/03 05:16:34;;;;;;;1.75;0.37;;;;;;;14.74;63.24;100563.28;4478888;31;34179;-79
2023/10/03 05:19:04;;;;;;;0.93;0.93;;;;;;;14.66;63.88;100568.94;4465282;31;32576;-80
2023/10/03 05:21:32;;;;;;;0.50;0.35;;;;;;;14.76;63.66;100562.25;4477926;31;33858;-79
2023/10/03 05:23:59;;;;;;;1.02;0.50;;;;;;;14.82;63.35;100569.09;4474493;31;35746;-80
2023/10/03 05:26:27;;;;;;;0.40;0.40;;;;;;;14.88;63.48;100573.22;4488327;31;34247;-80
2023/10/03 05:28:55;;;;;;;0.77;0.60;;;;;;;15.07;62.45;100572.25;4489369;31;32451;-80
2023/10/03 05:31:24;;;;;;;0.50;0.50;;;;;;;15.02;62.83;100573.41;4488368;31;34464;-80
2023/10/03 05:33:51;;;;;;;2.45;0.85;;;;;;;15.10;62.95;100579.22;4490583;31;34089;-80
2023/10/03 05:36:20;;;;;;;0.40;0.40;;;;;;;15.11;62.99;100572.94;4464069;31;32827;-80
2023/10/03 05:38:49;;;;;;;6.00;1.40;;;;;;;15.14;63.23;100583.41;4462173;31;33474;-80
2023/10/03 05:41:26;;;;;;;5.90;1.00;;;;;;;15.16;63.72;100575.38;4464477;31;33351;-80
2023/10/03 05:43:53;;;;;;;1.15;0.98;;;;;;;15.25;63.66;100570.47;4479343;31;32951;-80
2023/10/03 05:46:22;;;;;;;1.85;1.00;;;;;;;15.30;63.63;100573.75;4470675;31;34892;-79
2023/10/03 05:48:51;;;;;;;1.08;0.40;;;;;;;15.40;63.05;100571.47;4465252;32;34281;-79
2023/10/03 05:51:20;;;;;;;0.98;0.93;;;;;;;15.48;62.80;100566.63;4466076;31;35660;-79
2023/10/03 05:53:48;;;;;;;0.68;0.68;;;;;;;15.43;62.66;100574.00;4468816;31;33511;-79
2023/10/03 05:56:16;;;;;;;2.17;1.25;;;;;;;15.61;62.51;100578.31;4472310;31;34015;-79
2023/10/03 05:58:44;;;;;;;0.60;0.60;;;;;;;15.52;63.11;100578.81;4492365;31;32610;-80
2023/10/03 06:01:12;;;;;;;0.43;0.43;;;;;;;15.75;62.25;100574.97;4480697;31;33017;-79
2023/10/03 06:03:41;;;;;;;1.75;1.45;;;;;;;15.88;61.81;100584.03;4478095;31;34044;-80
2023/10/03 06:06:10;;;;;;;1.85;1.10;;;;;;;15.94;61.87;100574.88;4486232;31;33952;-82
2023/10/03 06:08:37;;;;;;;9.88;1.02;;;;;;;16.38;nan;100569.78;4468300;31;31460;-79
2023/10/03 06:11:05;;;;;;;0.37;0.37;;;;;;;16.34;60.05;100583.38;4471701;32;33876;-81
2023/10/03 06:13:33;;;;;;;0.77;0.77;;;;;;;16.67;58.87;100577.09;4464343;31;33078;-81
2023/10/03 06:16:01;;;;;;;0.50;0.50;;;;;;;16.83;58.71;100575.31;4475671;31;34514;-81
2023/10/03 06:18:28;;;;;;;1.35;0.88;;;;;;;16.84;58.82;100582.34;4464982;31;32227;-80
2023/10/03 06:20:57;;;;;;;0.98;0.98;;;;;;;16.74;59.49;100581.16;4494259;31;33347;-81
2023/10/03 06:23:26;;;;;;;1.10;0.50;;;;;;;16.96;58.43;100580.81;4475362;31;31981;-82
2023/10/03 06:25:54;;;;;;;1.50;0.68;;;;;;;17.23;56.48;100589.00;4491796;31;34595;-80
2023/10/03 06:28:22;;;;;;;0.80;0.80;;;;;;;17.10;57.22;100584.38;4487530;31;33793;-80
2023/10/03 06:30:52;;;;;;;0.77;0.50;;;;;;;17.21;57.05;100580.22;4478321;31;33880;-80
2023/10/03 06:33:22;;;;;;;2.53;0.62;;;;;;;17.23;56.97;100583.66;4461635;31;32496;-79
2023/10/03 06:35:59;;;;;;;1.20;1.10;;;;;;;17.66;56.28;100581.97;4478624;31;33580;-80
2023/10/03 06:38:27;;;;;;;0.65;0.65;;;;;;;17.81;54.91;100577.53;4489401;31;36137;-81
2023/10/03 06:40:54;;;;;;;2.78;1.48;;;;;;;17.54;55.16;100578.22;4481852;31;35554;-80
2023/10/03 06:43:22;;;;;;;0.98;0.73;;;;;;;17.55;56.51;100582.59;4470242;31;34005;-80
2023/10/03 06:45:50;;;;;;;0.55;0.55;;;;;;;17.69;56.46;100580.91;4491688;31;33972;-80
2023/10/03 06:48:18;;;;;;;0.55;0.55;;;;;;;17.80;56.46;100583.81;4467189;31;33888;-81
2023/10/03 06:50:47;;;;;;;1.45;1.27;;;;;;;18.14;55.31;100579.94;4466590;31;33671;-81
2023/10/03 06:53:17;;;;;;;1.20;0.45;;;;;;;18.31;54.36;100581.53;4475896;31;31649;-80
2023/10/03 06:55:45;;;;;;;3.28;1.42;;;;;;;18.41;54.10;100585.34;4464185;31;33166;-80
2023/10/03 06:58:13;;;;;;;1.27;1.17;;;;;;;18.61;54.29;100576.03;4475581;31;32603;-80
2023/10/03 07:00:41;;;;;;;0.37;0.32;;;;;;;18.37;53.93;100583.81;4488180;31;33715;-81
2023/10/03 07:03:09;;;;;;;2.85;0.60;;;;;;;18.50;54.32;100568.69;4485507;31;34241;-80
2023/10/03 07:05:37;;;;;;;0.65;0.65;;;;;;;18.73;53.33;100575.28;4489344;31;33307;-80
2023/10/03 07:08:05;;;;;;;0.80;0.80;;;;;;;18.81;53.60;100572.97;4478355;31;33052;-81
2023/10/03 07:10:33;;;;;;;5.50;1.77;;;;;;;18.77;53.14;100575.94;4465797;31;32820;-80
2023/10/03 07:13:02;;;;;;;1.67;0.17;;;;;;;18.37;54.44;100583.81;4479612;31;32975;-81
2023/10/03 07:15:30;;;;;;;1.37;1.02;;;;;;;18.68;54.00;100572.91;4461290;31;32951;-81
2023/10/03 07:17:58;;;;;;;3.33;0.90;;;;;;;19.18;53.01;100579.41;4490425;31;33347;-81
2023/10/03 07:20:26;;;;;;;0.73;0.73;;;;;;;18.98;53.00;100577.19;4478521;31;33452;-82
2023/10/03 07:22:54;;;;;;;1.45;0.95;;;;;;;19.37;52.35;100575.47;4464054;31;33703;-81
2023/10/03 07:25:21;;;;;;;2.87;1.00;;;;;;;19.31;52.35;100574.06;4490769;31;33635;-81
2023/10/03 07:27:49;;;;;;;0.85;0.85;;;;;;;19.42;52.26;100573.34;4478141;31;34226;-81
2023/10/03 07:30:18;;;;;;;0.65;0.65;;;;;;;19.89;50.27;100585.28;4477596;31;32938;-80
2023/10/03 07:32:47;;;;;;;1.73;1.45;;;;;;;20.13;50.24;100572.87;4487941;31;33409;-80
2023/10/03 07:35:17;;;;;;;0.47;0.47;;;;;;;20.17;49.81;100571.66;4480556;31;32809;-81
2023/10/03 07:37:45;;;;;;;4.32;2.15;;;;;;;19.86;50.32;100577.50;4478542;31;32976;-80
2023/10/03 07:40:13;;;;;;;1.15;1.15;;;;;;;20.27;49.55;100571.88;4492309;31;33502;-81
2023/10/03 07:42:40;;;;;;;2.95;1.62;;;;;;;20.05;50.94;100571.69;4465795;31;32642;-81
2023/10/03 07:45:09;;;;;;;1.75;1.62;;;;;;;20.32;49.85;100574.19;4465429;31;33694;-80
2023/10/03 07:47:37;;;;;;;6.25;1.27;;;;;;;20.36;50.14;100576.56;4476662;31;33475;-81
2023/10/03 07:50:05;;;;;;;5.57;1.27;;;;;;;20.81;49.49;100584.94;4460639;31;33779;-80
2023/10/03 07:52:34;;;;;;;1.58;1.27;;;;;;;20.75;49.22;100582.72;4466957;31;34072;-81
2023/10/03 07:55:03;;;;;;;1.58;0.95;;;;;;;20.90;49.24;100580.72;4489392;31;34568;-81
2023/10/03 07:57:31;;;;;;;3.95;0.88;;;;;;;21.11;48.08;100579.09;4463714;31;32303;-80
2023/10/03 07:59:59;;;;;;;1.55;1.45;;;;;;;21.23;48.35;100572.81;4490874;31;34645;-80
2023/10/03 08:02:32;;;;;;;1.60;0.68;;;;;;;20.85;48.74;100573.00;4490604;31;33925;-80
2023/10/03 08:05:00;;;;;;;2.53;1.60;;;;;;;21.46;47.43;100570.25;4476033;31;33229;-81
2023/10/03 08:07:28;;;;;;;0.70;0.70;;;;;;;21.56;48.02;100573.09;4463039;31;33149;-81
2023/10/03 08:09:56;;;;;;;0.55;0.45;;;;;;;21.15;48.14;100572.53;4491340;31;33991;-81
2023/10/03 08:12:24;;;;;;;14.95;1.23;;;;;;;21.25;47.88;100583.44;4478926;31;33896;-81
2023/10/03 08:14:55;;;;;;;1.45;0.85;;;;;;;21.41;47.84;100570.59;4479835;31;35531;-81
2023/10/03 08:17:30;;;;;;;0.60;0.60;;;;;;;21.80;47.45;100564.94;4477854;31;33492;-80
2023/10/03 08:20:05;;;;;;;0.50;0.50;;;;;;;21.73;46.88;100565.41;4477370;31;33911;-81
2023/10/03 08:22:34;;;;;;;1.62;1.52;;;;;;;21.75;47.23;100567.13;4470858;31;33017;-80
2023/10/03 08:25:05;;;;;;;1.30;1.15;;;;;;;22.15;46.49;100565.72;4466023;31;32863;-81
2023/10/03 08:27:33;;;;;;;;;;;;;;;22.20;46.47;100560.81;4477646;31;33368;-81
2023/10/03 08:30:03;;;;;;;6.97;1.10;;;;;;;22.26;46.92;100561.28;4477550;31;33013;-80
2023/10/03 08:32:31;;;;;;;6.68;2.08;;;;;;;22.13;47.25;100559.59;4486948;31;36715;-81
2023/10/03 08:34:59;;;;;;;3.15;1.35;;;;;;;22.15;47.66;100560.31;4476339;31;34943;-80
2023/10/03 08:37:26;;;;;;;15.15;2.20;;;;;;;21.98;46.66;100553.59;4476100;31;32578;-81
2023/10/03 08:39:54;;;;;;;1.60;1.10;;;;;;;22.46;46.08;100552.50;4488710;31;34657;-81
2023/10/03 08:42:35;;;;;;;1.17;1.17;;;;;;;22.41;45.84;100554.69;4476476;31;33570;-81
2023/10/03 08:45:22;;;;;;;1.65;1.10;;;;;;;22.61;46.33;100548.53;4479596;31;32754;-81
2023/10/03 08:47:52;;;;;;;1.20;1.10;;;;;;;22.77;45.88;100553.50;4460919;31;33561;-80
2023/10/03 08:50:33;;;;;;;4.50;1.48;;;;;;;22.73;45.91;100546.66;4464795;31;33698;-81
2023/10/03 08:53:12;;;;;;;0.50;0.50;;;;;;;22.87;45.38;100542.81;4489405;31;34412;-81
2023/10/03 08:55:49;;;;;;;0.60;0.60;;;;;;;23.20;44.89;100542.72;4469605;31;33157;-80
2023/10/03 08:58:25;;;;;;;1.45;1.35;;;;;;;23.18;45.37;100539.31;4465739;31;33249;-80
2023/10/03 09:01:02;;;;;;;6.55;1.92;;;;;;;23.53;44.61;100535.41;4467958;31;32616;-81
2023/10/03 09:03:58;;;;;;;0.20;0.20;;;;;;;22.87;46.01;100534.75;4491784;31;34766;-81
2023/10/03 09:06:20;;;;;;;1.40;1.05;;;;;;;23.45;45.19;100525.31;4488595;31;33778;-81
2023/10/03 09:09:09;;;;;;;8.82;0.62;;;;;;;24.00;44.24;100519.66;4477902;31;32581;-81
2023/10/03 09:11:37;;;;;;;1.92;1.52;;;;;;;24.19;43.83;100519.72;4468769;31;33737;-81
2023/10/03 09:14:06;;;;;;;0.40;0.40;;;;;;;23.92;44.12;100524.87;4479109;31;32609;-81
2023/10/03 09:16:38;;;;;;;1.17;0.85;;;;;;;24.15;44.02;100521.00;4479412;31;32906;-81
2023/10/03 09:19:09;;;;;;;1.73;0.85;;;;;;;24.32;43.33;100513.25;4471831;31;32893;-81
2023/10/03 09:21:37;;;;;;;1.83;1.35;;;;;;;24.40;43.12;100516.13;4490626;31;32792;-81
2023/10/03 09:24:15;;;;;;;2.40;1.50;;;;;;;24.91;42.53;100504.25;4488554;31;33660;-81
2023/10/03 09:26:51;;;;;;;1.42;1.33;;;;;;;24.84;42.56;100509.38;4478230;31;33075;-81
2023/10/03 09:29:32;;;;;;;4.57;1.35;;;;;;;24.42;43.79;100492.56;4478135;31;33307;-81
2023/10/03 09:32:13;;;;;;;2.35;1.33;;;;;;;24.65;42.68;100494.00;4480385;31;33699;-81
2023/10/03 09:34:46;;;;;;;2.40;1.42;;;;;;;24.70;42.76;100499.84;4469417;31;33019;-81
2023/10/03 09:37:17;;;;;;;2.17;1.80;;;;;;;25.09;42.64;100497.16;4476492;31;34272;-81
2023/10/03 09:39:48;;;;;;;1.80;0.73;;;;;;;25.35;42.20;100486.59;4478595;31;34659;-81
2023/10/03 09:42:24;;;;;;;0.50;0.43;;;;;;;25.31;41.29;100485.19;4476559;31;33189;-82
2023/10/03 09:44:57;;;;;;;4.05;1.35;;;;;;;25.53;41.63;100482.13;4478474;31;35180;-81
2023/10/03 09:47:36;;;;;;;4.62;1.00;;;;;;;25.69;41.36;100478.84;4478259;31;33144;-81
2023/10/03 09:50:08;;;;;;;8.80;0.90;;;;;;;26.16;40.49;100476.09;4479971;31;32343;-80
2023/10/03 09:52:37;;;;;;;1.48;1.08;;;;;;;26.00;40.63;100486.69;4477365;31;32978;-81
2023/10/03 09:55:21;;;;;;;1.02;0.82;;;;;;;26.46;39.59;100474.94;4476946;31;34013;-81
2023/10/03 09:57:55;;;;;;;1.27;0.57;;;;;;;26.66;38.80;100470.22;4478703;31;33013;-81
2023/10/03 10:00:53;;;;;;;0.73;0.73;;;;;;;26.05;39.13;100468.16;4482270;31;34305;-81
2023/10/03 10:03:28;;;;;;;3.25;1.17;;;;;;;26.21;39.04;100473.78;4479237;31;34740;-80
2023/10/03 10:06:14;;;;;;;0.85;0.80;;;;;;;26.35;39.29;100475.13;4478671;31;33687;-83
2023/10/03 10:08:48;;;;;;;1.05;0.95;;;;;;;26.35;39.37;100469.72;4465745;31;32026;-81
2023/10/03 10:11:15;;;;;;;1.15;0.85;;;;;;;26.61;39.30;100464.41;4494361;31;33130;-81
2023/10/03 10:14:09;;;;;;;3.53;0.68;;;;;;;26.75;37.57;100461.16;4478179;31;33069;-82
2023/10/03 10:17:03;;;;;;;1.35;1.25;;;;;;;27.14;37.20;100447.28;4463600;31;32986;-82
2023/10/03 10:20:09;;;;;;;0.65;0.47;;;;;;;27.26;36.70;100443.31;4491184;31;33812;-82
2023/10/03 10:22:58;;;;;;;2.03;1.12;;;;;;;27.47;37.21;100444.78;4494012;31;33371;-83
2023/10/03 10:25:26;;;;;;;13.15;1.25;;;;;;;26.96;36.91;100446.41;4475401;31;32551;-83
2023/10/03 10:28:08;;;;;;;1.55;0.57;;;;;;;26.77;36.71;100442.03;4465550;31;34064;-82
2023/10/03 10:30:38;;;;;;;1.45;0.82;;;;;;;27.04;36.91;100451.91;4463735;31;33668;-82
2023/10/03 10:33:15;;;;;;;0.45;0.45;;;;;;;27.26;36.44;100442.47;4479619;31;33304;-82
2023/10/03 10:36:03;;;;;;;2.25;0.88;;;;;;;26.83;36.97;100440.56;4476668;31;34132;-82
2023/10/03 10:38:31;;;;;;;1.02;0.68;;;;;;;27.05;36.63;100440.06;4478394;31;33943;-82
2023/10/03 10:41:11;;;;;;;18.15;2.47;;;;;;;26.97;36.45;100429.19;4477766;31;32654;-82
2023/10/03 10:44:05;;;;;;;4.97;1.65;;;;;;;27.49;36.06;100426.50;4491913;31;33270;-82
2023/10/03 10:46:46;;;;;;;6.22;0.75;;;;;;;27.60;35.55;100423.50;4480629;31;32938;-82
2023/10/03 10:49:36;;;;;;;0.55;0.55;;;;;;;27.55;36.12;100415.84;4491370;31;33049;-82
2023/10/03 10:52:07;;;;;;;0.93;0.85;;;;;;;27.59;35.13;100427.22;4476981;31;33157;-82
2023/10/03 10:54:36;;;;;;;1.00;0.47;;;;;;;28.22;34.53;100418.66;4477515;31;33234;-82
2023/10/03 10:57:06;;;;;;;2.35;1.05;;;;;;;28.10;34.65;100411.84;4477397;31;33850;-82
2023/10/03 10:59:40;;;;;;;0.77;0.77;;;;;;;27.77;35.70;100414.47;4477771;31;34843;-82
2023/10/03 11:02:17;;;;;;;2.05;0.50;;;;;;;28.14;34.77;100407.78;4482220;31;33183;-82
2023/10/03 11:04:58;;;;;;;0.22;0.22;;;;;;;28.36;33.88;100398.19;4465417;31;32335;-82
2023/10/03 11:07:28;;;;;;;2.55;0.65;;;;;;;28.51;34.88;100401.94;4489761;31;35099;-83
2023/10/03 11:10:04;;;;;;;1.98;0.98;;;;;;;28.23;34.26;100397.78;4476397;31;34350;-82
2023/10/03 11:13:03;;;;;;;0.37;0.37;;;;;;;28.16;33.91;100392.19;4478971;31;34006;-82
2023/10/03 11:15:31;;;;;;;0.95;0.60;;;;;;;28.69;33.71;100393.63;4474675;31;33568;-82
2023/10/03 11:17:59;;;;;;;1.50;0.80;;;;;;;28.54;33.92;100377.16;4475997;31;33903;-81
2023/10/03 11:20:27;;;;;;;3.03;0.60;;;;;;;29.06;33.61;100378.69;4464045;31;32897;-82
2023/10/03 11:22:55;;;;;;;2.80;0.80;;;;;;;28.69;32.95;100371.91;4490209;31;33943;-81
2023/10/03 11:25:25;;;;;;;1.10;0.95;;;;;;;28.63;33.70;100371.72;4464370;31;32240;-82
2023/10/03 11:27:56;;;;;;;0.85;0.73;;;;;;;28.95;32.74;100384.47;4478595;31;33076;-81
2023/10/03 11:30:25;;;;;;;0.68;0.30;;;;;;;28.98;32.27;100370.53;4477501;31;33314;-82
2023/10/03 11:33:00;;;;;;;12.43;0.77;;;;;;;28.91;33.08;100374.91;4475644;31;33347;-82
2023/10/03 11:35:28;;;;;;;28.12;1.25;;;;;;;29.05;32.70;100366.94;4478447;31;33195;-82
2023/10/03 11:38:05;;;;;;;3.97;0.37;;;;;;;29.06;32.28;100362.37;4475645;31;33233;-82
2023/10/03 11:40:33;;;;;;;1.30;1.15;;;;;;;29.14;32.38;100353.34;4489807;31;32257;-82
2023/10/03 11:43:03;;;;;;;0.25;0.20;;;;;;;28.46;32.66;100354.56;4478042;31;32148;-82
2023/10/03 11:45:33;;;;;;;4.57;1.08;;;;;;;28.96;32.18;100361.69;4464130;31;33521;-82